Time;durP1;ratioP1;P1;durP2;ratioP2;P2;SDS_P1;SDS_P2;PMS_P1;PMS_P2;Temp;Humidity;BMP_temperature;BMP_pressure;BME280_temperature;BME280_humidity;BME280_pressure;Samples;Min_cycle;Max_cycle;Signal;HPM_P1;HPM_P2
2022/10/04 00:00:27;;;;;;;1.58;1.48;;;;;;;;;;5032013;28;20052;-65
2022/10/04 00:03:00;;;;;;;2.55;1.40;;;;;;;;;;5031878;28;20029;-66
2022/10/04 00:05:26;;;;;;;1.67;1.30;;;;;;;;;;5031794;28;20029;-65
2022/10/04 00:07:55;;;;;;;2.47;1.40;;;;;;;;;;5031575;28;20026;-65
2022/10/04 00:10:27;;;;;;;1.58;1.42;;;;;;;;;;5034734;28;20075;-65
2022/10/04 00:12:59;;;;;;;1.35;1.25;;;;;;;;;;5035419;28;20032;-66
2022/10/04 00:15:36;;;;;;;1.92;1.42;;;;;;;;;;5035174;28;20052;-66
2022/10/04 00:18:10;;;;;;;1.30;1.20;;;;;;;;;;5035099;28;20018;-68
2022/10/04 00:21:00;;;;;;;2.20;1.50;;;;;;;;;;5035036;28;20481;-70
2022/10/04 00:23:34;;;;;;;2.60;1.63;;;;;;;;;;5032805;28;20046;-66
2022/10/04 00:26:09;;;;;;;1.35;1.25;;;;;;;;;;5033798;28;20112;-66
2022/10/04 00:28:35;;;;;;;1.60;1.40;;;;;;;;;;5030656;28;20045;-65
2022/10/04 00:31:08;;;;;;;1.48;1.38;;;;;;;;;;5032595;28;20147;-69
2022/10/04 00:33:37;;;;;;;1.30;1.25;;;;;;;;;;5029170;28;20373;-67
2022/10/04 00:36:22;;;;;;;1.40;1.30;;;;;;;;;;5032519;28;20056;-67
2022/10/04 00:39:03;;;;;;;1.70;1.30;;;;;;;;;;5033049;28;20473;-69
2022/10/04 00:41:47;;;;;;;1.85;1.50;;;;;;;;;;5033226;28;20038;-69
2022/10/04 00:44:45;;;;;;;1.40;1.30;;;;;;;;;;5033572;28;20079;-69
2022/10/04 00:47:33;;;;;;;2.03;1.80;;;;;;;;;;5027260;28;20124;-67
2022/10/04 00:50:36;;;;;;;1.45;1.35;;;;;;;;;;5030261;28;20037;-65
2022/10/04 00:53:11;;;;;;;1.42;1.30;;;;;;;;;;5018055;28;20401;-67
2022/10/04 00:55:45;;;;;;;1.40;1.30;;;;;;;;;;5022483;28;20128;-67
2022/10/04 00:58:20;;;;;;;1.38;1.27;;;;;;;;;;5034237;28;20045;-64
2022/10/04 01:00:47;;;;;;;2.17;1.60;;;;;;;;;;5034287;28;20021;-66
2022/10/04 01:03:29;;;;;;;1.35;1.25;;;;;;;;;;5034328;28;20381;-65
2022/10/04 01:05:59;;;;;;;1.77;1.30;;;;;;;;;;5034276;28;20354;-63
2022/10/04 01:08:30;;;;;;;1.55;1.33;;;;;;;;;;5034388;28;20025;-62
2022/10/04 01:11:16;;;;;;;1.92;1.63;;;;;;;;;;5034173;28;20026;-63
2022/10/04 01:13:55;;;;;;;2.28;1.25;;;;;;;;;;5034308;28;20516;-63
2022/10/04 01:16:27;;;;;;;5.35;1.48;;;;;;;;;;5034312;28;20025;-63
2022/10/04 01:18:52;;;;;;;1.40;1.30;;;;;;;;;;5034135;28;20025;-64
2022/10/04 01:21:21;;;;;;;1.50;1.40;;;;;;;;;;5033932;28;20480;-64
2022/10/04 01:24:12;;;;;;;2.15;1.10;;;;;;;;;;5033722;28;20035;-64
2022/10/04 01:26:41;;;;;;;1.50;1.40;;;;;;;;;;5033796;28;20485;-64
2022/10/04 01:29:12;;;;;;;1.48;1.38;;;;;;;;;;5034308;28;20108;-65
2022/10/04 01:31:44;;;;;;;1.40;1.30;;;;;;;;;;5033806;28;20397;-66
2022/10/04 01:34:16;;;;;;;1.38;1.27;;;;;;;;;;5033861;28;20022;-67
2022/10/04 01:36:45;;;;;;;1.40;1.30;;;;;;;;;;5033576;28;20025;-63
2022/10/04 01:39:12;;;;;;;2.58;1.40;;;;;;;;;;5033359;28;20026;-65
2022/10/04 01:42:02;;;;;;;1.52;1.40;;;;;;;;;;5033355;28;20045;-62
2022/10/04 01:44:35;;;;;;;1.50;1.20;;;;;;;;;;5033208;28;20044;-66
2022/10/04 01:47:07;;;;;;;2.45;1.20;;;;;;;;;;5033709;28;20044;-67
2022/10/04 01:49:35;;;;;;;1.40;1.30;;;;;;;;;;5033346;28;20424;-65
2022/10/04 01:52:34;;;;;;;2.50;1.92;;;;;;;;;;5033483;28;20048;-67
2022/10/04 01:55:05;;;;;;;1.40;1.30;;;;;;;;;;5033221;28;20021;-66
2022/10/04 01:57:36;;;;;;;1.33;1.23;;;;;;;;;;5033135;28;20116;-66
2022/10/04 02:00:08;;;;;;;1.67;1.30;;;;;;;;;;5033163;28;20022;-66
2022/10/04 02:03:02;;;;;;;1.50;1.40;;;;;;;;;;5033067;28;20430;-64
2022/10/04 02:05:33;;;;;;;1.90;1.40;;;;;;;;;;5032769;28;20037;-66
2022/10/04 02:08:07;;;;;;;1.25;1.15;;;;;;;;;;5032124;28;20367;-64
2022/10/04 02:10:35;;;;;;;1.80;1.40;;;;;;;;;;5032718;28;20029;-66
2022/10/04 02:13:03;;;;;;;1.40;1.30;;;;;;;;;;5032814;28;20041;-65
2022/10/04 02:15:30;;;;;;;1.42;1.33;;;;;;;;;;5032842;28;20062;-67
2022/10/04 02:17:57;;;;;;;1.42;1.30;;;;;;;;;;5027968;28;20025;-66
2022/10/04 02:20:24;;;;;;;1.38;1.27;;;;;;;;;;5013260;28;20030;-67
2022/10/04 02:22:55;;;;;;;1.27;1.20;;;;;;;;;;5013016;28;20492;-67
2022/10/04 02:25:21;;;;;;;1.42;1.30;;;;;;;;;;5013226;28;20152;-65
2022/10/04 02:27:53;;;;;;;1.40;1.30;;;;;;;;;;5013202;28;20021;-65
2022/10/04 02:30:19;;;;;;;1.60;1.35;;;;;;;;;;5012973;28;20445;-67
2022/10/04 02:32:58;;;;;;;1.40;1.30;;;;;;;;;;5012419;28;20096;-67
2022/10/04 02:35:37;;;;;;;2.05;1.33;;;;;;;;;;5012990;28;20109;-69
2022/10/04 02:38:30;;;;;;;1.13;1.13;;;;;;;;;;5013046;28;20429;-68
2022/10/04 02:41:06;;;;;;;1.42;1.30;;;;;;;;;;5012789;28;20076;-67
2022/10/04 02:43:38;;;;;;;1.35;1.20;;;;;;;;;;5012959;28;20030;-68
2022/10/04 02:46:20;;;;;;;1.55;1.45;;;;;;;;;;5012719;28;20037;-66
2022/10/04 02:48:54;;;;;;;1.40;1.17;;;;;;;;;;5013084;28;20026;-67
2022/10/04 02:52:04;;;;;;;1.52;1.38;;;;;;;;;;5012933;28;20026;-67
2022/10/04 02:54:41;;;;;;;1.58;1.27;;;;;;;;;;4990664;28;20034;-68
2022/10/04 02:57:16;;;;;;;1.15;1.10;;;;;;;;;;4990726;28;20030;-67
2022/10/04 02:59:42;;;;;;;1.42;1.10;;;;;;;;;;5003955;28;20038;-67
2022/10/04 03:02:28;;;;;;;2.17;1.10;;;;;;;;;;5012617;28;20076;-67
2022/10/04 03:04:58;;;;;;;1.30;1.20;;;;;;;;;;5012441;28;20573;-66
2022/10/04 03:07:24;;;;;;;1.13;1.10;;;;;;;;;;5012753;28;20025;-66
2022/10/04 03:09:50;;;;;;;1.30;1.20;;;;;;;;;;5012679;28;20053;-67
2022/10/04 03:12:16;;;;;;;1.30;1.20;;;;;;;;;;5012497;28;20482;-66
2022/10/04 03:14:43;;;;;;;1.77;1.20;;;;;;;;;;5012688;28;20033;-66
2022/10/04 03:17:08;;;;;;;1.30;1.20;;;;;;;;;;5012759;28;20026;-67
2022/10/04 03:19:34;;;;;;;1.20;1.20;;;;;;;;;;5012408;28;20429;-67
2022/10/04 03:22:08;;;;;;;1.33;1.23;;;;;;;;;;5012503;28;20210;-67
2022/10/04 03:24:38;;;;;;;1.50;1.30;;;;;;;;;;5012310;28;20113;-67
2022/10/04 03:27:08;;;;;;;1.50;1.40;;;;;;;;;;5012228;28;20030;-64
2022/10/04 03:29:38;;;;;;;1.45;1.35;;;;;;;;;;5012526;28;20083;-66
2022/10/04 03:32:04;;;;;;;;;;;;;;;;;;5012985;28;20036;-64
2022/10/04 03:34:36;;;;;;;1.40;1.30;;;;;;;;;;5012524;28;20185;-67
2022/10/04 03:37:05;;;;;;;1.30;1.20;;;;;;;;;;5012154;28;20026;-66
2022/10/04 03:39:38;;;;;;;1.65;1.30;;;;;;;;;;5012333;28;20041;-66
2022/10/04 03:42:15;;;;;;;1.40;1.30;;;;;;;;;;5012116;28;20559;-66
2022/10/04 03:44:43;;;;;;;1.45;1.10;;;;;;;;;;5016054;28;20121;-67
2022/10/04 03:47:16;;;;;;;1.98;1.38;;;;;;;;;;5015923;28;20033;-67
2022/10/04 03:49:43;;;;;;;1.20;1.10;;;;;;;;;;5016056;28;20026;-67
2022/10/04 03:52:21;;;;;;;1.40;1.30;;;;;;;;;;5015834;28;20033;-67
2022/10/04 03:54:51;;;;;;;1.27;1.17;;;;;;;;;;5015649;28;20545;-66
2022/10/04 03:57:16;;;;;;;3.22;1.27;;;;;;;;;;5015669;28;20075;-66
2022/10/04 03:59:42;;;;;;;1.60;1.30;;;;;;;;;;5015647;28;20029;-67
2022/10/04 04:02:29;;;;;;;1.40;1.30;;;;;;;;;;5015400;28;20026;-67
2022/10/04 04:05:05;;;;;;;1.20;1.10;;;;;;;;;;5014181;28;20048;-67
2022/10/04 04:07:37;;;;;;;1.30;1.20;;;;;;;;;;5015806;28;20037;-66
2022/10/04 04:10:24;;;;;;;1.35;1.25;;;;;;;;;;5015787;28;20061;-67
2022/10/04 04:13:42;;;;;;;1.30;1.20;;;;;;;;;;5029807;28;20029;-64
2022/10/04 04:16:08;;;;;;;1.55;1.23;;;;;;;;;;5034923;28;20582;-64
2022/10/04 04:18:37;;;;;;;1.42;1.30;;;;;;;;;;5035237;28;20025;-67
2022/10/04 04:21:05;;;;;;;1.40;1.30;;;;;;;;;;5035265;28;20365;-66
2022/10/04 04:23:40;;;;;;;1.10;1.10;;;;;;;;;;5035057;28;20025;-62
2022/10/04 04:26:15;;;;;;;1.30;1.20;;;;;;;;;;5035003;28;20036;-65
2022/10/04 04:28:49;;;;;;;1.65;1.40;;;;;;;;;;5034811;28;20026;-63
2022/10/04 04:31:23;;;;;;;1.00;1.00;;;;;;;;;;5034942;28;20021;-68
2022/10/04 04:33:59;;;;;;;3.60;1.27;;;;;;;;;;5034816;28;20043;-65
2022/10/04 04:36:31;;;;;;;1.83;1.10;;;;;;;;;;5034697;28;20024;-64
2022/10/04 04:41:51;;;;;;;1.40;1.30;;;;;;;;;;5034484;28;20076;-66
2022/10/04 04:44:17;;;;;;;1.33;1.10;;;;;;;;;;5034543;28;20440;-66
2022/10/04 04:46:46;;;;;;;1.13;1.13;;;;;;;;;;5034905;28;20025;-63
2022/10/04 04:49:15;;;;;;;1.40;1.30;;;;;;;;;;5034536;28;20100;-63
2022/10/04 04:51:47;;;;;;;1.30;1.20;;;;;;;;;;5034450;28;20041;-65
2022/10/04 04:54:14;;;;;;;1.20;1.10;;;;;;;;;;5033843;28;20025;-67
2022/10/04 04:56:41;;;;;;;1.30;1.20;;;;;;;;;;5034533;28;20033;-65
2022/10/04 04:59:07;;;;;;;1.40;1.30;;;;;;;;;;5034552;28;20021;-64
2022/10/04 05:01:34;;;;;;;1.13;1.02;;;;;;;;;;5034075;28;20022;-64
2022/10/04 05:04:11;;;;;;;1.30;1.20;;;;;;;;;;5034352;28;20435;-63
2022/10/04 05:06:42;;;;;;;1.08;1.05;;;;;;;;;;5033870;28;20497;-63
2022/10/04 05:09:33;;;;;;;1.40;1.30;;;;;;;;;;5034041;28;20030;-63
2022/10/04 05:12:14;;;;;;;1.33;1.20;;;;;;;;;;5033882;28;20021;-64
2022/10/04 05:14:46;;;;;;;2.00;1.50;;;;;;;;;;5033992;28;20036;-67
2022/10/04 05:17:22;;;;;;;1.15;1.08;;;;;;;;;;5030911;28;20112;-67
2022/10/04 05:19:48;;;;;;;3.42;1.23;;;;;;;;;;5033360;28;20056;-65
2022/10/04 05:22:20;;;;;;;1.10;1.00;;;;;;;;;;5033375;28;20056;-63
2022/10/04 05:24:49;;;;;;;1.10;1.00;;;;;;;;;;5032922;28;20033;-63
2022/10/04 05:27:28;;;;;;;2.10;1.13;;;;;;;;;;5033304;28;20323;-65
2022/10/04 05:30:02;;;;;;;1.30;1.20;;;;;;;;;;5033642;28;20021;-68
2022/10/04 05:32:52;;;;;;;0.90;0.90;;;;;;;;;;5033621;28;20409;-64
2022/10/04 05:35:19;;;;;;;;;;;;;;;;;;5033248;28;20045;-67
2022/10/04 05:38:28;;;;;;;1.30;1.20;;;;;;;;;;5033809;28;20084;-67
2022/10/04 05:41:23;;;;;;;1.20;1.10;;;;;;;;;;5031791;28;20040;-63
2022/10/04 05:43:50;;;;;;;1.30;1.20;;;;;;;;;;5027621;28;20049;-66
2022/10/04 05:46:25;;;;;;;1.10;1.10;;;;;;;;;;5033399;28;20557;-66
2022/10/04 05:49:12;;;;;;;1.30;1.20;;;;;;;;;;5033435;28;20030;-67
2022/10/04 05:51:55;;;;;;;1.30;1.08;;;;;;;;;;5033038;28;20034;-66
2022/10/04 05:54:24;;;;;;;1.20;1.10;;;;;;;;;;5033179;28;20030;-63
2022/10/04 05:57:07;;;;;;;2.30;1.20;;;;;;;;;;5033379;28;20018;-64
2022/10/04 05:59:36;;;;;;;1.20;1.10;;;;;;;;;;5033207;28;20029;-63
2022/10/04 06:02:07;;;;;;;1.35;1.23;;;;;;;;;;5033336;28;20021;-63
2022/10/04 06:04:55;;;;;;;1.42;1.17;;;;;;;;;;5033180;28;20029;-65
2022/10/04 06:07:36;;;;;;;1.30;1.20;;;;;;;;;;5032019;28;20026;-63
2022/10/04 06:10:08;;;;;;;1.20;1.10;;;;;;;;;;5032922;28;20022;-64
2022/10/04 06:12:52;;;;;;;1.35;1.25;;;;;;;;;;5032793;28;20100;-66
2022/10/04 06:15:51;;;;;;;1.40;1.30;;;;;;;;;;5032820;28;20385;-67
2022/10/04 06:18:29;;;;;;;3.22;1.30;;;;;;;;;;5032814;28;20029;-68
2022/10/04 06:21:20;;;;;;;1.00;1.00;;;;;;;;;;5027098;28;20026;-69
2022/10/04 06:23:56;;;;;;;1.20;1.20;;;;;;;;;;5027431;28;20021;-68
2022/10/04 06:26:29;;;;;;;1.42;1.33;;;;;;;;;;5025594;28;20025;-68
2022/10/04 06:29:05;;;;;;;2.15;1.30;;;;;;;;;;5027603;28;20044;-68
2022/10/04 06:31:48;;;;;;;1.83;1.30;;;;;;;;;;5027137;28;20405;-69
2022/10/04 06:34:44;;;;;;;1.25;1.15;;;;;;;;;;5023839;28;20495;-66
2022/10/04 06:37:40;;;;;;;1.25;1.17;;;;;;;;;;5026133;28;20377;-64
2022/10/04 06:40:30;;;;;;;1.30;1.20;;;;;;;;;;5026013;28;20381;-67
2022/10/04 06:43:29;;;;;;;1.50;1.20;;;;;;;;;;5019175;28;20472;-66
2022/10/04 06:46:13;;;;;;;1.42;1.20;;;;;;;;;;5028271;28;20351;-67
2022/10/04 06:48:51;;;;;;;1.25;1.15;;;;;;;;;;5028031;28;20493;-64
2022/10/04 06:51:39;;;;;;;1.15;1.05;;;;;;;;;;5026836;28;20033;-67
2022/10/04 06:54:57;;;;;;;2.30;1.10;;;;;;;;;;5027700;28;20087;-68
2022/10/04 06:57:38;;;;;;;1.30;1.20;;;;;;;;;;4987656;28;20531;-68
2022/10/04 07:00:25;;;;;;;1.70;1.35;;;;;;;;;;5032523;28;20064;-68
2022/10/04 07:03:01;;;;;;;1.30;1.20;;;;;;;;;;5031943;28;20025;-69
2022/10/04 07:05:53;;;;;;;2.30;1.20;;;;;;;;;;5028835;28;20036;-67
2022/10/04 07:08:33;;;;;;;2.15;1.30;;;;;;;;;;5022387;28;20030;-64
2022/10/04 07:11:16;;;;;;;;;;;;;;;;;;5012454;28;20022;-67
2022/10/04 07:13:46;;;;;;;1.38;1.20;;;;;;;;;;5043654;28;20002;-65
2022/10/04 07:16:26;;;;;;;1.40;1.30;;;;;;;;;;5010374;28;20160;-62
2022/10/04 07:19:18;;;;;;;1.40;1.30;;;;;;;;;;5039504;28;20059;-66
2022/10/04 07:21:53;;;;;;;1.38;1.25;;;;;;;;;;5032537;28;20031;-66
2022/10/04 07:24:27;;;;;;;1.50;1.20;;;;;;;;;;5040054;28;20036;-68
2022/10/04 07:26:54;;;;;;;2.08;1.40;;;;;;;;;;5042856;28;20036;-71
2022/10/04 07:29:27;;;;;;;3.13;1.63;;;;;;;;;;5034945;28;20541;-73
2022/10/04 07:32:08;;;;;;;2.58;1.80;;;;;;;;;;5037182;28;20042;-71
2022/10/04 07:34:51;;;;;;;2.22;1.83;;;;;;;;;;5034795;28;20531;-70
2022/10/04 07:37:18;;;;;;;4.13;1.55;;;;;;;;;;5035140;28;20056;-69
2022/10/04 07:40:28;;;;;;;3.22;2.05;;;;;;;;;;5034409;28;20017;-72
2022/10/04 07:43:03;;;;;;;6.82;1.52;;;;;;;;;;5011404;28;20058;-65
2022/10/04 07:45:32;;;;;;;4.43;1.58;;;;;;;;;;5012036;28;20038;-67
2022/10/04 07:48:15;;;;;;;2.70;1.50;;;;;;;;;;5025209;28;20421;-71
2022/10/04 07:50:44;;;;;;;3.47;1.90;;;;;;;;;;5035633;28;20037;-71
2022/10/04 07:53:37;;;;;;;2.73;1.70;;;;;;;;;;5034669;28;20031;-70
2022/10/04 07:56:11;;;;;;;4.35;1.85;;;;;;;;;;5033992;28;20072;-68
2022/10/04 07:58:49;;;;;;;3.25;1.67;;;;;;;;;;5034087;28;20049;-70
2022/10/04 08:01:29;;;;;;;6.28;2.15;;;;;;;;;;5033143;28;20087;-67
2022/10/04 08:04:21;;;;;;;2.75;2.00;;;;;;;;;;5033164;28;20084;-67
2022/10/04 08:06:58;;;;;;;3.97;2.10;;;;;;;;;;5033229;28;20105;-67
2022/10/04 08:09:49;;;;;;;5.00;2.30;;;;;;;;;;5033470;28;20032;-70
2022/10/04 08:12:30;;;;;;;4.65;2.40;;;;;;;;;;5033861;28;20482;-71
2022/10/04 08:15:13;;;;;;;5.70;2.40;;;;;;;;;;5033675;28;20033;-68
2022/10/04 08:18:00;;;;;;;2.85;1.90;;;;;;;;;;5033528;28;20551;-70
2022/10/04 08:20:52;;;;;;;4.93;2.55;;;;;;;;;;5033490;28;20393;-72
2022/10/04 08:23:18;;;;;;;5.55;2.40;;;;;;;;;;5033847;28;20025;-71
2022/10/04 08:26:18;;;;;;;3.88;2.42;;;;;;;;;;5033336;28;20158;-72
2022/10/04 08:31:55;;;;;;;5.22;2.60;;;;;;;;;;5033547;28;20088;-72
2022/10/04 08:34:42;;;;;;;7.63;2.33;;;;;;;;;;5033582;28;20029;-66
2022/10/04 08:37:25;;;;;;;4.18;2.58;;;;;;;;;;5033228;28;20060;-69
2022/10/04 08:40:15;;;;;;;5.32;3.08;;;;;;;;;;5033196;28;20128;-68
2022/10/04 08:43:02;;;;;;;8.02;3.20;;;;;;;;;;5031663;28;20045;-70
2022/10/04 08:45:56;;;;;;;4.68;2.58;;;;;;;;;;5033837;28;20449;-72
2022/10/04 08:48:37;;;;;;;4.45;2.65;;;;;;;;;;5033461;28;20033;-69
2022/10/04 08:51:11;;;;;;;4.22;2.63;;;;;;;;;;5033511;28;20108;-71
2022/10/04 08:53:49;;;;;;;4.15;2.35;;;;;;;;;;5033099;28;20037;-72
2022/10/04 08:56:42;;;;;;;4.30;2.47;;;;;;;;;;5033230;28;20116;-71
2022/10/04 08:59:22;;;;;;;2.97;2.60;;;;;;;;;;5033038;28;20044;-72
2022/10/04 09:02:27;;;;;;;3.25;2.40;;;;;;;;;;5034729;28;20025;-72
2022/10/04 09:05:19;;;;;;;5.88;2.55;;;;;;;;;;5034801;28;20033;-73
2022/10/04 09:07:56;;;;;;;3.33;2.20;;;;;;;;;;5035811;28;20034;-72
2022/10/04 09:10:49;;;;;;;4.47;2.58;;;;;;;;;;5035262;28;20045;-69
2022/10/04 09:13:39;;;;;;;5.45;2.38;;;;;;;;;;5034001;28;20021;-72
2022/10/04 09:16:07;;;;;;;3.50;2.40;;;;;;;;;;5034554;28;20052;-71
2022/10/04 09:19:24;;;;;;;4.43;2.40;;;;;;;;;;5033707;28;20028;-73
2022/10/04 09:21:56;;;;;;;3.65;2.50;;;;;;;;;;5011607;28;20054;-72
2022/10/04 09:24:44;;;;;;;4.63;2.30;;;;;;;;;;5029172;28;20524;-70
2022/10/04 09:27:22;;;;;;;4.63;2.40;;;;;;;;;;5032708;28;20037;-68
2022/10/04 09:29:54;;;;;;;4.50;2.42;;;;;;;;;;5033493;28;20065;-69
2022/10/04 09:32:40;;;;;;;5.75;2.30;;;;;;;;;;5032830;28;20048;-72
2022/10/04 09:35:40;;;;;;;5.22;2.30;;;;;;;;;;5033199;28;20021;-67
2022/10/04 09:38:14;;;;;;;4.13;2.60;;;;;;;;;;5050442;28;20033;-67
2022/10/04 09:40:42;;;;;;;3.70;2.60;;;;;;;;;;5050446;28;20281;-65
2022/10/04 09:43:27;;;;;;;9.50;2.47;;;;;;;;;;5021495;28;20096;-66
2022/10/04 09:46:22;;;;;;;5.47;2.83;;;;;;;;;;5011867;28;20056;-65
2022/10/04 09:49:13;;;;;;;3.70;2.80;;;;;;;;;;5025372;28;20489;-66
2022/10/04 09:52:00;;;;;;;3.45;2.50;;;;;;;;;;5021770;28;20135;-66
2022/10/04 09:54:57;;;;;;;7.22;2.88;;;;;;;;;;5028828;28;20036;-66
2022/10/04 09:57:45;;;;;;;4.60;2.83;;;;;;;;;;5033349;28;20035;-66
2022/10/04 10:00:23;;;;;;;4.97;3.58;;;;;;;;;;5031489;28;20025;-67
2022/10/04 10:03:01;;;;;;;6.65;3.15;;;;;;;;;;5038748;28;20025;-66
2022/10/04 10:05:41;;;;;;;5.40;3.10;;;;;;;;;;5024827;28;20556;-67
2022/10/04 10:08:15;;;;;;;4.75;2.33;;;;;;;;;;5030424;28;20160;-66
2022/10/04 10:14:05;;;;;;;3.67;2.53;;;;;;;;;;5031047;28;20048;-66
2022/10/04 10:17:01;;;;;;;4.45;2.85;;;;;;;;;;5031445;28;20037;-67
2022/10/04 10:19:40;;;;;;;6.55;2.42;;;;;;;;;;5024407;28;20037;-66
2022/10/04 10:22:31;;;;;;;3.13;2.22;;;;;;;;;;5027395;28;20444;-66
2022/10/04 10:25:08;;;;;;;3.45;2.80;;;;;;;;;;5030965;28;20481;-68
2022/10/04 10:28:13;;;;;;;6.05;2.80;;;;;;;;;;5031436;28;20129;-67
2022/10/04 10:31:22;;;;;;;4.93;2.90;;;;;;;;;;5031233;28;20029;-66
2022/10/04 10:34:24;;;;;;;4.53;2.90;;;;;;;;;;5020779;28;20381;-67
2022/10/04 10:37:29;;;;;;;6.43;2.42;;;;;;;;;;5029322;28;20038;-67
2022/10/04 10:40:20;;;;;;;5.78;3.00;;;;;;;;;;5030922;28;20128;-67
2022/10/04 10:42:53;;;;;;;5.63;2.85;;;;;;;;;;5030700;28;20049;-67
2022/10/04 10:45:56;;;;;;;6.60;2.90;;;;;;;;;;5030289;28;20041;-67
2022/10/04 10:48:58;;;;;;;4.43;2.90;;;;;;;;;;5030694;28;20116;-67
2022/10/04 10:51:49;;;;;;;5.45;3.00;;;;;;;;;;5030689;28;20029;-67
2022/10/04 10:54:32;;;;;;;3.78;2.90;;;;;;;;;;5029390;28;20099;-67
2022/10/04 10:57:08;;;;;;;5.72;2.85;;;;;;;;;;5030922;28;20025;-66
2022/10/04 11:00:09;;;;;;;3.95;3.10;;;;;;;;;;5030982;28;20052;-68
2022/10/04 11:02:52;;;;;;;5.00;2.70;;;;;;;;;;5026195;28;20470;-66
2022/10/04 11:05:56;;;;;;;5.20;3.08;;;;;;;;;;5010920;28;20670;-67
2022/10/04 11:08:59;;;;;;;4.15;2.90;;;;;;;;;;5011059;28;20022;-65
2022/10/04 11:11:43;;;;;;;4.68;2.70;;;;;;;;;;5010888;28;20036;-66
2022/10/04 11:14:36;;;;;;;4.63;2.88;;;;;;;;;;5011109;28;20033;-66
2022/10/04 11:17:45;;;;;;;4.68;2.90;;;;;;;;;;5011139;28;20030;-67
2022/10/04 11:20:38;;;;;;;4.37;2.43;;;;;;;;;;5010259;28;20465;-66
2022/10/04 11:23:10;;;;;;;4.90;2.80;;;;;;;;;;5010689;28;20037;-66
2022/10/04 11:25:41;;;;;;;3.60;3.00;;;;;;;;;;5010607;28;20030;-66
2022/10/04 11:28:17;;;;;;;4.78;2.67;;;;;;;;;;5011100;28;20034;-66
2022/10/04 11:30:57;;;;;;;6.82;2.88;;;;;;;;;;5010774;28;20022;-66
2022/10/04 11:33:54;;;;;;;3.30;2.42;;;;;;;;;;5010950;28;20045;-66
2022/10/04 11:36:26;;;;;;;4.60;2.80;;;;;;;;;;5010922;28;20044;-66
2022/10/04 11:39:24;;;;;;;3.55;2.90;;;;;;;;;;5010825;28;20112;-65
2022/10/04 11:42:28;;;;;;;4.65;2.78;;;;;;;;;;5010352;28;20044;-65
2022/10/04 11:45:18;;;;;;;4.13;2.65;;;;;;;;;;5010017;28;20040;-66
2022/10/04 11:48:10;;;;;;;5.03;2.80;;;;;;;;;;5010509;28;20037;-66
2022/10/04 11:50:54;;;;;;;3.58;2.80;;;;;;;;;;5010348;28;20128;-66
2022/10/04 11:53:57;;;;;;;4.65;2.53;;;;;;;;;;5010314;28;20105;-66
2022/10/04 11:56:43;;;;;;;3.67;2.65;;;;;;;;;;5010539;28;20037;-66
2022/10/04 11:59:38;;;;;;;3.92;2.80;;;;;;;;;;5026903;28;20025;-66
2022/10/04 12:02:46;;;;;;;4.93;2.70;;;;;;;;;;5030315;28;20477;-66
2022/10/04 12:05:31;;;;;;;4.25;2.60;;;;;;;;;;5014097;28;20428;-66
2022/10/04 12:07:56;;;;;;;5.00;2.70;;;;;;;;;;5033945;28;20064;-66
2022/10/04 12:10:42;;;;;;;6.65;3.08;;;;;;;;;;5034043;28;20061;-66
2022/10/04 12:13:25;;;;;;;4.22;2.30;;;;;;;;;;5033426;28;20032;-66
2022/10/04 12:16:28;;;;;;;5.03;2.40;;;;;;;;;;5033478;28;20060;-66
2022/10/04 12:19:06;;;;;;;6.43;2.70;;;;;;;;;;5033185;28;20124;-67
2022/10/04 12:21:40;;;;;;;3.80;2.58;;;;;;;;;;5033405;28;20112;-66
2022/10/04 12:24:47;;;;;;;4.25;2.45;;;;;;;;;;5033455;28;20029;-66
2022/10/04 12:27:48;;;;;;;3.08;2.42;;;;;;;;;;5033617;28;20025;-67
2022/10/04 12:30:49;;;;;;;4.32;2.30;;;;;;;;;;5033221;28;20029;-67
2022/10/04 12:33:33;;;;;;;4.13;2.40;;;;;;;;;;5028139;28;20053;-66
2022/10/04 12:36:24;;;;;;;7.45;2.58;;;;;;;;;;5033246;28;20026;-66
2022/10/04 12:39:01;;;;;;;5.53;2.42;;;;;;;;;;5033651;28;20029;-66
2022/10/04 12:41:38;;;;;;;5.20;2.20;;;;;;;;;;5033013;28;20064;-66
2022/10/04 12:44:12;;;;;;;7.88;2.45;;;;;;;;;;5033574;28;20033;-66
2022/10/04 12:46:40;;;;;;;7.40;3.38;;;;;;;;;;5033139;28;20033;-67
2022/10/04 12:49:32;;;;;;;2.97;2.17;;;;;;;;;;5033041;28;20032;-66
2022/10/04 12:52:26;;;;;;;2.42;2.20;;;;;;;;;;5032685;28;20095;-66
2022/10/04 12:55:16;;;;;;;4.57;2.50;;;;;;;;;;5033123;28;20072;-67
2022/10/04 12:58:14;;;;;;;4.82;2.50;;;;;;;;;;5032909;28;20033;-66
2022/10/04 13:00:44;;;;;;;8.95;2.50;;;;;;;;;;5031910;28;20042;-66
2022/10/04 13:03:12;;;;;;;;;;;;;;;;;;5032820;28;20033;-66
2022/10/04 13:06:04;;;;;;;8.45;2.35;;;;;;;;;;5032960;28;19917;-67
2022/10/04 13:09:04;;;;;;;7.82;2.47;;;;;;;;;;5032504;28;20535;-67
2022/10/04 13:12:07;;;;;;;4.53;2.47;;;;;;;;;;5032392;28;20076;-67
2022/10/04 13:15:10;;;;;;;7.75;3.25;;;;;;;;;;5032472;28;20109;-67
2022/10/04 13:17:51;;;;;;;8.43;2.72;;;;;;;;;;5032164;28;20026;-67
2022/10/04 13:20:19;;;;;;;4.97;3.10;;;;;;;;;;5032544;28;20033;-67
2022/10/04 13:23:11;;;;;;;6.15;2.88;;;;;;;;;;5032571;28;20049;-67
2022/10/04 13:25:59;;;;;;;6.10;3.00;;;;;;;;;;5032734;28;20037;-66
2022/10/04 13:29:03;;;;;;;4.07;2.80;;;;;;;;;;5032134;28;20032;-67
2022/10/04 13:31:45;;;;;;;6.18;2.70;;;;;;;;;;5041267;28;20045;-66
2022/10/04 13:34:23;;;;;;;5.18;2.75;;;;;;;;;;5032283;28;20055;-67
2022/10/04 13:36:57;;;;;;;5.88;3.15;;;;;;;;;;5032571;28;20036;-67
2022/10/04 13:39:40;;;;;;;6.22;3.10;;;;;;;;;;5031926;28;20026;-66
2022/10/04 13:42:35;;;;;;;7.10;3.42;;;;;;;;;;5031891;28;20064;-67
2022/10/04 13:45:25;;;;;;;8.05;2.90;;;;;;;;;;5032114;28;20034;-66
2022/10/04 13:47:51;;;;;;;4.10;2.85;;;;;;;;;;5031780;28;20029;-67
2022/10/04 13:50:50;;;;;;;6.00;2.95;;;;;;;;;;5026041;28;20037;-67
2022/10/04 13:56:58;;;;;;;6.40;2.90;;;;;;;;;;5029322;28;20095;-67
2022/10/04 13:59:31;;;;;;;5.20;3.50;;;;;;;;;;5030424;28;20026;-64
2022/10/04 14:02:09;;;;;;;3.88;2.83;;;;;;;;;;5030214;28;20025;-66
2022/10/04 14:04:56;;;;;;;5.22;3.13;;;;;;;;;;5028337;28;20029;-65
2022/10/04 14:07:40;;;;;;;5.32;2.88;;;;;;;;;;5027066;28;20040;-65
2022/10/04 14:10:30;;;;;;;4.38;3.10;;;;;;;;;;5030329;28;20048;-65
2022/10/04 14:13:17;;;;;;;6.35;2.95;;;;;;;;;;5031326;28;20033;-67
2022/10/04 14:16:01;;;;;;;6.00;2.97;;;;;;;;;;5031003;28;20026;-67
2022/10/04 14:18:56;;;;;;;5.30;2.85;;;;;;;;;;5031425;28;20025;-65
2022/10/04 14:21:22;;;;;;;4.40;2.60;;;;;;;;;;5031375;28;20025;-65
2022/10/04 14:24:18;;;;;;;5.85;2.60;;;;;;;;;;5031097;28;20397;-65
2022/10/04 14:27:39;;;;;;;5.32;2.67;;;;;;;;;;5030814;28;20036;-65
2022/10/04 14:30:41;;;;;;;5.75;2.58;;;;;;;;;;5018534;28;20095;-67
2022/10/04 14:33:30;;;;;;;8.48;2.83;;;;;;;;;;5030836;28;20021;-65
2022/10/04 14:36:08;;;;;;;4.30;2.38;;;;;;;;;;5031003;28;20041;-65
2022/10/04 14:38:43;;;;;;;4.43;2.53;;;;;;;;;;5030418;28;20029;-67
2022/10/04 14:41:14;;;;;;;3.58;2.45;;;;;;;;;;5030555;28;20077;-63
2022/10/04 14:43:51;;;;;;;3.75;3.00;;;;;;;;;;5030262;28;20029;-67
2022/10/04 14:46:40;;;;;;;4.57;2.70;;;;;;;;;;5030552;28;20112;-63
2022/10/04 14:49:28;;;;;;;3.85;2.72;;;;;;;;;;5030563;28;20037;-68
2022/10/04 14:52:19;;;;;;;4.57;2.60;;;;;;;;;;5030510;28;20029;-63
2022/10/04 14:55:09;;;;;;;5.93;2.50;;;;;;;;;;5030556;28;20033;-64
2022/10/04 14:57:53;;;;;;;2.78;2.58;;;;;;;;;;5030530;28;20478;-65
2022/10/04 15:00:28;;;;;;;4.22;2.97;;;;;;;;;;5030442;28;20029;-66
2022/10/04 15:03:02;;;;;;;4.20;2.60;;;;;;;;;;5030646;28;20051;-66
2022/10/04 15:05:30;;;;;;;4.00;2.70;;;;;;;;;;5030729;28;20454;-66
2022/10/04 15:08:21;;;;;;;8.02;2.80;;;;;;;;;;5030623;28;20034;-65
2022/10/04 15:10:57;;;;;;;6.60;2.70;;;;;;;;;;5030835;28;20029;-65
2022/10/04 15:13:40;;;;;;;4.38;3.15;;;;;;;;;;5030458;28;20017;-67
2022/10/04 15:16:31;;;;;;;5.30;2.70;;;;;;;;;;5030808;28;20033;-66
2022/10/04 15:19:21;;;;;;;5.43;2.58;;;;;;;;;;5029158;28;20041;-64
2022/10/04 15:22:05;;;;;;;6.05;2.70;;;;;;;;;;5030256;28;20176;-64
2022/10/04 15:24:37;;;;;;;4.90;2.38;;;;;;;;;;5029142;28;20029;-66
2022/10/04 15:27:11;;;;;;;3.33;2.40;;;;;;;;;;5030148;28;20064;-67
2022/10/04 15:29:43;;;;;;;4.72;2.58;;;;;;;;;;5030505;28;20057;-67
2022/10/04 15:32:20;;;;;;;5.28;2.70;;;;;;;;;;5030365;28;20092;-65
2022/10/04 15:35:02;;;;;;;5.13;2.90;;;;;;;;;;5030341;28;20078;-66
2022/10/04 15:37:41;;;;;;;4.53;2.40;;;;;;;;;;5030498;28;20029;-66
2022/10/04 15:40:34;;;;;;;2.90;2.40;;;;;;;;;;5033290;28;20018;-67
2022/10/04 15:43:23;;;;;;;3.50;2.45;;;;;;;;;;5034036;28;20409;-65
2022/10/04 15:46:22;;;;;;;4.50;2.60;;;;;;;;;;5033477;28;20021;-66
2022/10/04 15:48:50;;;;;;;3.80;2.43;;;;;;;;;;5034282;28;20480;-63
2022/10/04 15:51:44;;;;;;;4.03;2.35;;;;;;;;;;5034105;28;20262;-64
2022/10/04 15:54:46;;;;;;;2.72;2.30;;;;;;;;;;5033878;28;20117;-65
2022/10/04 15:57:30;;;;;;;4.20;2.70;;;;;;;;;;5033924;28;20044;-65
2022/10/04 16:00:10;;;;;;;5.60;2.53;;;;;;;;;;5033904;28;20071;-67
2022/10/04 16:02:46;;;;;;;2.95;2.00;;;;;;;;;;5033853;28;20039;-65
2022/10/04 16:05:38;;;;;;;6.95;2.40;;;;;;;;;;5033939;28;20067;-65
2022/10/04 16:08:12;;;;;;;2.88;2.08;;;;;;;;;;5033971;28;20029;-64
2022/10/04 16:11:08;;;;;;;3.85;2.63;;;;;;;;;;5032182;28;20175;-64
2022/10/04 16:13:58;;;;;;;4.78;2.30;;;;;;;;;;5033534;28;20029;-64
2022/10/04 16:16:49;;;;;;;3.15;2.35;;;;;;;;;;5033346;28;20033;-64
2022/10/04 16:19:39;;;;;;;5.10;2.78;;;;;;;;;;5032358;28;20037;-65